This is the latest recevied weather packets stored in our database for station/object W0JRT-6. If no packets are shown the sender has not sent any weather packets the latest 1 day(s).
| Time | Temp. | Humidity | Pressure | Rain* | Wind** | Luminosity | Snow |
|---|---|---|---|---|---|---|---|
| 1778055607 | 7.78° C | 94% | 1014.5 hPa | 0.51 mm | - | - | - |
| 1778053803 | 7.78° C | 94% | 1013.8 hPa | 0.51 mm | - | - | - |
| 1778053201 | 7.78° C | 94% | 1013.8 hPa | 0.51 mm | - | - | - |
| 1778052599 | 7.78° C | 94% | 1013.3 hPa | 0.51 mm | - | - | - |
| 1778052074 | 7.78° C | 93% | 1013 hPa | 0.51 mm | - | - | - |
| 1778051998 | 7.78° C | 93% | 1013 hPa | 0.51 mm | - | - | - |
| 1778051402 | 7.78° C | 92% | 1013.8 hPa | 0.51 mm | - | - | - |
| 1778050804 | 8.33° C | 91% | 1013.3 hPa | 0.51 mm | - | - | - |
| 1778050212 | 8.33° C | 89% | 1012.8 hPa | 0.51 mm | - | - | - |
| 1778049600 | 7.78° C | 89% | 1012.8 hPa | 0.51 mm | - | - | - |
| 1778049000 | 7.78° C | 91% | 1013.1 hPa | 0.51 mm | - | - | - |
| 1778048400 | 8.33° C | 90% | 1013.7 hPa | 0.51 mm | - | - | - |
| 1778047804 | 8.33° C | 88% | 1013.9 hPa | 0.51 mm | - | - | - |
| 1778046602 | 8.33° C | 86% | 1014.3 hPa | 0.51 mm | - | - | - |
| 1778046008 | 8.33° C | 87% | 1014.4 hPa | 0.51 mm | - | - | - |
| 1778044804 | 8.33° C | 85% | 1014.3 hPa | 0.25 mm | - | - | - |
| 1778044206 | 8.33° C | 84% | 1014.3 hPa | 0.25 mm | - | - | - |
| 1778040606 | 11.11° C | 63% | 1013 hPa | 6.1 mm | - | - | - |
| 1778039402 | 11.67° C | 57% | 1012.7 hPa | 6.1 mm | - | - | - |
| 1778035197 | 11.11° C | 67% | 1010.7 hPa | 6.1 mm | - | - | - |
| 1778033997 | 11.11° C | 65% | 1010.6 hPa | 6.1 mm | - | - | - |
| 1778031599 | 11.11° C | 75% | 1009.8 hPa | 6.1 mm | - | - | - |
* Rain since midnight (hover to see other rain measurements)
** Current wind speed in m/s (hover to see current wind gust speed)